sensor_id;sensor_type;location;lat;lon;timestamp;P1;durP1;ratioP1;P2;durP2;ratioP2
63046;SDS011;62025;39.238;9.126;2022-10-31T00:00:59;20.48;;;9.98;;
63046;SDS011;62025;39.238;9.126;2022-10-31T00:03:26;13.45;;;8.15;;
63046;SDS011;62025;39.238;9.126;2022-10-31T00:05:52;12.15;;;6.82;;
63046;SDS011;62025;39.238;9.126;2022-10-31T00:08:18;9.30;;;6.28;;
63046;SDS011;62025;39.238;9.126;2022-10-31T00:10:45;12.30;;;6.22;;
63046;SDS011;62025;39.238;9.126;2022-10-31T00:13:12;8.98;;;6.45;;
63046;SDS011;62025;39.238;9.126;2022-10-31T00:15:39;12.65;;;5.25;;
63046;SDS011;62025;39.238;9.126;2022-10-31T00:18:06;10.07;;;5.85;;
63046;SDS011;62025;39.238;9.126;2022-10-31T00:20:34;10.25;;;6.28;;
63046;SDS011;62025;39.238;9.126;2022-10-31T00:23:00;7.00;;;5.28;;
63046;SDS011;62025;39.238;9.126;2022-10-31T00:25:28;12.23;;;5.85;;
63046;SDS011;62025;39.238;9.126;2022-10-31T00:27:57;9.05;;;5.18;;
63046;SDS011;62025;39.238;9.126;2022-10-31T00:30:23;11.13;;;5.00;;
63046;SDS011;62025;39.238;9.126;2022-10-31T00:32:49;9.73;;;4.90;;
63046;SDS011;62025;39.238;9.126;2022-10-31T00:35:16;9.15;;;4.47;;
63046;SDS011;62025;39.238;9.126;2022-10-31T00:37:43;7.38;;;4.50;;
63046;SDS011;62025;39.238;9.126;2022-10-31T00:40:10;9.95;;;4.60;;
63046;SDS011;62025;39.238;9.126;2022-10-31T00:42:36;9.18;;;4.18;;
63046;SDS011;62025;39.238;9.126;2022-10-31T00:45:04;8.23;;;4.13;;
63046;SDS011;62025;39.238;9.126;2022-10-31T00:47:30;7.63;;;4.70;;
63046;SDS011;62025;39.238;9.126;2022-10-31T00:49:56;6.47;;;3.83;;
63046;SDS011;62025;39.238;9.126;2022-10-31T00:52:22;8.52;;;4.10;;
63046;SDS011;62025;39.238;9.126;2022-10-31T00:54:48;10.90;;;4.28;;
63046;SDS011;62025;39.238;9.126;2022-10-31T00:57:15;8.93;;;4.10;;
63046;SDS011;62025;39.238;9.126;2022-10-31T00:59:41;7.57;;;4.10;;
63046;SDS011;62025;39.238;9.126;2022-10-31T01:02:07;7.10;;;4.43;;
63046;SDS011;62025;39.238;9.126;2022-10-31T01:04:33;9.35;;;4.50;;
63046;SDS011;62025;39.238;9.126;2022-10-31T01:06:59;6.88;;;4.40;;
63046;SDS011;62025;39.238;9.126;2022-10-31T01:09:25;7.18;;;4.00;;
63046;SDS011;62025;39.238;9.126;2022-10-31T01:11:51;6.57;;;4.45;;
63046;SDS011;62025;39.238;9.126;2022-10-31T01:14:17;6.80;;;4.40;;
63046;SDS011;62025;39.238;9.126;2022-10-31T01:16:43;7.28;;;4.05;;
63046;SDS011;62025;39.238;9.126;2022-10-31T01:19:09;10.25;;;3.95;;
63046;SDS011;62025;39.238;9.126;2022-10-31T01:21:35;5.10;;;3.90;;
63046;SDS011;62025;39.238;9.126;2022-10-31T01:24:02;8.93;;;4.45;;
63046;SDS011;62025;39.238;9.126;2022-10-31T01:26:29;10.00;;;3.97;;
63046;SDS011;62025;39.238;9.126;2022-10-31T01:28:58;6.30;;;3.75;;
63046;SDS011;62025;39.238;9.126;2022-10-31T01:31:28;8.75;;;4.22;;
63046;SDS011;62025;39.238;9.126;2022-10-31T01:33:57;7.43;;;4.00;;
63046;SDS011;62025;39.238;9.126;2022-10-31T01:36:25;6.90;;;4.40;;
63046;SDS011;62025;39.238;9.126;2022-10-31T01:39:03;6.20;;;4.65;;
63046;SDS011;62025;39.238;9.126;2022-10-31T01:41:33;9.32;;;4.60;;
63046;SDS011;62025;39.238;9.126;2022-10-31T01:44:43;9.32;;;4.13;;
63046;SDS011;62025;39.238;9.126;2022-10-31T01:51:47;9.73;;;4.15;;
63046;SDS011;62025;39.238;9.126;2022-10-31T01:54:20;8.45;;;4.20;;
63046;SDS011;62025;39.238;9.126;2022-10-31T01:56:50;10.60;;;4.78;;
63046;SDS011;62025;39.238;9.126;2022-10-31T01:59:21;10.73;;;5.03;;
63046;SDS011;62025;39.238;9.126;2022-10-31T02:01:50;9.13;;;4.38;;
63046;SDS011;62025;39.238;9.126;2022-10-31T02:04:18;8.18;;;5.03;;
63046;SDS011;62025;39.238;9.126;2022-10-31T02:06:47;9.75;;;5.05;;
63046;SDS011;62025;39.238;9.126;2022-10-31T02:09:21;9.95;;;5.32;;
63046;SDS011;62025;39.238;9.126;2022-10-31T02:11:49;9.85;;;4.82;;
63046;SDS011;62025;39.238;9.126;2022-10-31T02:14:18;6.55;;;4.63;;
63046;SDS011;62025;39.238;9.126;2022-10-31T02:16:47;6.85;;;4.35;;
63046;SDS011;62025;39.238;9.126;2022-10-31T02:19:13;6.75;;;4.65;;
63046;SDS011;62025;39.238;9.126;2022-10-31T02:22:24;12.85;;;5.45;;
63046;SDS011;62025;39.238;9.126;2022-10-31T02:30:55;6.97;;;4.35;;
63046;SDS011;62025;39.238;9.126;2022-10-31T02:33:50;7.15;;;4.60;;
63046;SDS011;62025;39.238;9.126;2022-10-31T02:36:45;9.35;;;4.63;;
63046;SDS011;62025;39.238;9.126;2022-10-31T02:39:53;8.02;;;4.53;;
63046;SDS011;62025;39.238;9.126;2022-10-31T02:43:54;6.85;;;4.43;;
63046;SDS011;62025;39.238;9.126;2022-10-31T02:49:11;7.30;;;4.30;;
63046;SDS011;62025;39.238;9.126;2022-10-31T02:54:47;7.15;;;4.13;;
63046;SDS011;62025;39.238;9.126;2022-10-31T02:57:14;7.13;;;4.20;;
63046;SDS011;62025;39.238;9.126;2022-10-31T02:59:46;7.68;;;4.07;;
63046;SDS011;62025;39.238;9.126;2022-10-31T03:11:14;8.35;;;4.03;;
63046;SDS011;62025;39.238;9.126;2022-10-31T03:13:53;6.78;;;4.30;;
63046;SDS011;62025;39.238;9.126;2022-10-31T03:16:53;6.22;;;4.18;;
63046;SDS011;62025;39.238;9.126;2022-10-31T03:19:36;5.55;;;3.78;;
63046;SDS011;62025;39.238;9.126;2022-10-31T03:22:09;8.95;;;4.43;;
63046;SDS011;62025;39.238;9.126;2022-10-31T03:24:42;4.82;;;3.42;;
63046;SDS011;62025;39.238;9.126;2022-10-31T03:27:10;5.65;;;3.70;;
63046;SDS011;62025;39.238;9.126;2022-10-31T03:29:40;5.53;;;3.70;;
63046;SDS011;62025;39.238;9.126;2022-10-31T03:34:43;6.07;;;3.28;;
63046;SDS011;62025;39.238;9.126;2022-10-31T03:37:12;7.93;;;3.97;;
63046;SDS011;62025;39.238;9.126;2022-10-31T03:39:42;6.97;;;4.07;;
63046;SDS011;62025;39.238;9.126;2022-10-31T03:42:13;5.57;;;3.50;;
63046;SDS011;62025;39.238;9.126;2022-10-31T03:44:59;5.03;;;3.72;;
63046;SDS011;62025;39.238;9.126;2022-10-31T03:47:41;8.20;;;3.90;;
63046;SDS011;62025;39.238;9.126;2022-10-31T03:50:09;7.10;;;4.50;;
63046;SDS011;62025;39.238;9.126;2022-10-31T03:52:46;5.97;;;4.10;;
63046;SDS011;62025;39.238;9.126;2022-10-31T03:55:32;5.60;;;4.13;;
63046;SDS011;62025;39.238;9.126;2022-10-31T03:58:11;6.47;;;4.30;;
63046;SDS011;62025;39.238;9.126;2022-10-31T04:00:43;6.90;;;4.25;;
63046;SDS011;62025;39.238;9.126;2022-10-31T04:03:12;5.43;;;3.92;;
63046;SDS011;62025;39.238;9.126;2022-10-31T04:05:47;6.28;;;4.50;;
63046;SDS011;62025;39.238;9.126;2022-10-31T04:08:18;7.13;;;4.25;;
63046;SDS011;62025;39.238;9.126;2022-10-31T04:10:53;10.85;;;4.80;;
63046;SDS011;62025;39.238;9.126;2022-10-31T04:13:28;5.78;;;3.78;;
63046;SDS011;62025;39.238;9.126;2022-10-31T04:16:05;9.63;;;4.20;;
63046;SDS011;62025;39.238;9.126;2022-10-31T04:18:32;8.77;;;3.95;;
63046;SDS011;62025;39.238;9.126;2022-10-31T04:20:59;6.63;;;3.88;;
63046;SDS011;62025;39.238;9.126;2022-10-31T04:23:31;6.88;;;3.83;;
63046;SDS011;62025;39.238;9.126;2022-10-31T04:26:03;7.32;;;3.90;;
63046;SDS011;62025;39.238;9.126;2022-10-31T04:28:29;6.70;;;4.18;;
63046;SDS011;62025;39.238;9.126;2022-10-31T04:30:58;6.18;;;4.00;;
63046;SDS011;62025;39.238;9.126;2022-10-31T04:33:24;8.10;;;3.95;;
63046;SDS011;62025;39.238;9.126;2022-10-31T04:35:50;7.03;;;4.00;;
63046;SDS011;62025;39.238;9.126;2022-10-31T04:38:17;8.02;;;4.25;;
63046;SDS011;62025;39.238;9.126;2022-10-31T04:40:44;7.80;;;4.18;;
63046;SDS011;62025;39.238;9.126;2022-10-31T04:43:31;7.65;;;4.53;;
63046;SDS011;62025;39.238;9.126;2022-10-31T04:45:59;7.83;;;4.17;;
63046;SDS011;62025;39.238;9.126;2022-10-31T04:48:25;7.22;;;4.40;;
63046;SDS011;62025;39.238;9.126;2022-10-31T04:50:51;9.98;;;4.65;;
63046;SDS011;62025;39.238;9.126;2022-10-31T04:53:17;6.25;;;3.85;;
63046;SDS011;62025;39.238;9.126;2022-10-31T04:56:09;8.02;;;4.00;;
63046;SDS011;62025;39.238;9.126;2022-10-31T04:58:40;9.50;;;4.18;;
63046;SDS011;62025;39.238;9.126;2022-10-31T05:01:08;7.80;;;4.13;;
63046;SDS011;62025;39.238;9.126;2022-10-31T05:03:34;12.52;;;4.38;;
63046;SDS011;62025;39.238;9.126;2022-10-31T05:06:00;6.00;;;3.92;;
63046;SDS011;62025;39.238;9.126;2022-10-31T05:08:26;8.57;;;3.83;;
63046;SDS011;62025;39.238;9.126;2022-10-31T05:10:53;8.13;;;4.25;;
63046;SDS011;62025;39.238;9.126;2022-10-31T05:13:20;9.60;;;4.40;;
63046;SDS011;62025;39.238;9.126;2022-10-31T05:16:12;5.35;;;3.60;;
63046;SDS011;62025;39.238;9.126;2022-10-31T05:18:56;6.95;;;3.88;;
63046;SDS011;62025;39.238;9.126;2022-10-31T05:21:43;8.57;;;3.88;;
63046;SDS011;62025;39.238;9.126;2022-10-31T05:24:09;7.15;;;3.33;;
63046;SDS011;62025;39.238;9.126;2022-10-31T05:26:38;7.95;;;3.67;;
63046;SDS011;62025;39.238;9.126;2022-10-31T05:29:04;5.90;;;3.67;;
63046;SDS011;62025;39.238;9.126;2022-10-31T05:31:30;8.50;;;4.18;;
63046;SDS011;62025;39.238;9.126;2022-10-31T05:33:56;8.80;;;4.00;;
63046;SDS011;62025;39.238;9.126;2022-10-31T05:36:49;8.10;;;3.75;;
63046;SDS011;62025;39.238;9.126;2022-10-31T05:39:16;7.10;;;3.97;;
63046;SDS011;62025;39.238;9.126;2022-10-31T05:41:46;8.57;;;3.60;;
63046;SDS011;62025;39.238;9.126;2022-10-31T05:44:17;6.55;;;4.03;;
63046;SDS011;62025;39.238;9.126;2022-10-31T05:46:53;13.82;;;3.67;;
63046;SDS011;62025;39.238;9.126;2022-10-31T05:49:38;11.40;;;3.95;;
63046;SDS011;62025;39.238;9.126;2022-10-31T05:52:24;7.13;;;3.63;;
63046;SDS011;62025;39.238;9.126;2022-10-31T05:54:58;6.57;;;3.72;;
63046;SDS011;62025;39.238;9.126;2022-10-31T05:57:27;7.25;;;3.70;;
63046;SDS011;62025;39.238;9.126;2022-10-31T05:59:54;8.73;;;3.72;;
63046;SDS011;62025;39.238;9.126;2022-10-31T06:02:22;6.00;;;3.85;;
63046;SDS011;62025;39.238;9.126;2022-10-31T06:05:11;5.22;;;3.75;;
63046;SDS011;62025;39.238;9.126;2022-10-31T06:07:38;6.25;;;3.80;;
63046;SDS011;62025;39.238;9.126;2022-10-31T06:10:05;10.57;;;4.13;;
63046;SDS011;62025;39.238;9.126;2022-10-31T06:12:33;8.43;;;3.88;;
63046;SDS011;62025;39.238;9.126;2022-10-31T06:15:14;8.60;;;3.90;;
63046;SDS011;62025;39.238;9.126;2022-10-31T06:17:42;8.37;;;4.03;;
63046;SDS011;62025;39.238;9.126;2022-10-31T06:20:25;8.48;;;4.35;;
63046;SDS011;62025;39.238;9.126;2022-10-31T06:22:57;6.60;;;3.97;;
63046;SDS011;62025;39.238;9.126;2022-10-31T06:25:23;13.10;;;4.05;;
63046;SDS011;62025;39.238;9.126;2022-10-31T06:27:50;7.65;;;3.90;;
63046;SDS011;62025;39.238;9.126;2022-10-31T06:30:19;6.65;;;4.70;;
63046;SDS011;62025;39.238;9.126;2022-10-31T06:32:45;9.07;;;4.85;;
63046;SDS011;62025;39.238;9.126;2022-10-31T06:35:11;11.48;;;4.70;;
63046;SDS011;62025;39.238;9.126;2022-10-31T06:37:39;6.03;;;4.13;;
63046;SDS011;62025;39.238;9.126;2022-10-31T06:40:19;10.93;;;4.32;;
63046;SDS011;62025;39.238;9.126;2022-10-31T06:43:10;5.85;;;3.65;;
63046;SDS011;62025;39.238;9.126;2022-10-31T06:45:38;6.90;;;4.00;;
63046;SDS011;62025;39.238;9.126;2022-10-31T06:48:22;8.30;;;3.83;;
63046;SDS011;62025;39.238;9.126;2022-10-31T06:51:15;6.45;;;3.88;;
63046;SDS011;62025;39.238;9.126;2022-10-31T06:53:41;8.73;;;4.00;;
63046;SDS011;62025;39.238;9.126;2022-10-31T06:56:09;5.82;;;4.63;;
63046;SDS011;62025;39.238;9.126;2022-10-31T06:58:40;8.35;;;4.00;;
63046;SDS011;62025;39.238;9.126;2022-10-31T07:01:08;11.35;;;4.28;;
63046;SDS011;62025;39.238;9.126;2022-10-31T07:03:34;7.10;;;4.25;;
63046;SDS011;62025;39.238;9.126;2022-10-31T07:06:00;7.63;;;4.20;;
63046;SDS011;62025;39.238;9.126;2022-10-31T07:08:27;10.02;;;4.30;;
63046;SDS011;62025;39.238;9.126;2022-10-31T07:10:53;10.18;;;4.38;;
63046;SDS011;62025;39.238;9.126;2022-10-31T07:13:23;14.57;;;4.82;;
63046;SDS011;62025;39.238;9.126;2022-10-31T07:16:02;6.73;;;3.83;;
63046;SDS011;62025;39.238;9.126;2022-10-31T07:18:33;10.30;;;4.10;;
63046;SDS011;62025;39.238;9.126;2022-10-31T07:21:01;9.83;;;4.20;;
63046;SDS011;62025;39.238;9.126;2022-10-31T07:23:27;11.98;;;4.13;;
63046;SDS011;62025;39.238;9.126;2022-10-31T07:26:13;8.55;;;3.90;;
63046;SDS011;62025;39.238;9.126;2022-10-31T07:28:45;7.40;;;4.05;;
63046;SDS011;62025;39.238;9.126;2022-10-31T07:31:13;8.45;;;4.10;;
63046;SDS011;62025;39.238;9.126;2022-10-31T07:33:39;7.95;;;4.25;;
63046;SDS011;62025;39.238;9.126;2022-10-31T07:36:24;12.30;;;4.07;;
63046;SDS011;62025;39.238;9.126;2022-10-31T07:38:52;10.52;;;3.88;;
63046;SDS011;62025;39.238;9.126;2022-10-31T07:41:18;9.77;;;4.35;;
63046;SDS011;62025;39.238;9.126;2022-10-31T07:43:45;11.02;;;4.32;;
63046;SDS011;62025;39.238;9.126;2022-10-31T07:46:17;6.13;;;4.10;;
63046;SDS011;62025;39.238;9.126;2022-10-31T07:49:01;9.73;;;3.65;;
63046;SDS011;62025;39.238;9.126;2022-10-31T07:51:48;17.13;;;5.88;;
63046;SDS011;62025;39.238;9.126;2022-10-31T07:54:33;18.70;;;4.65;;
63046;SDS011;62025;39.238;9.126;2022-10-31T07:56:59;8.35;;;3.60;;
63046;SDS011;62025;39.238;9.126;2022-10-31T07:59:25;9.70;;;4.20;;
63046;SDS011;62025;39.238;9.126;2022-10-31T08:01:53;11.32;;;3.50;;
63046;SDS011;62025;39.238;9.126;2022-10-31T08:04:45;11.38;;;4.30;;
63046;SDS011;62025;39.238;9.126;2022-10-31T08:07:35;10.85;;;4.30;;
63046;SDS011;62025;39.238;9.126;2022-10-31T08:10:05;10.93;;;3.90;;
63046;SDS011;62025;39.238;9.126;2022-10-31T08:12:33;17.50;;;4.18;;
63046;SDS011;62025;39.238;9.126;2022-10-31T08:14:59;17.50;;;4.50;;
63046;SDS011;62025;39.238;9.126;2022-10-31T08:17:25;15.15;;;4.22;;
63046;SDS011;62025;39.238;9.126;2022-10-31T08:19:54;15.60;;;4.28;;
63046;SDS011;62025;39.238;9.126;2022-10-31T08:22:26;11.48;;;4.20;;
63046;SDS011;62025;39.238;9.126;2022-10-31T08:24:51;16.83;;;5.88;;
63046;SDS011;62025;39.238;9.126;2022-10-31T08:27:18;10.23;;;4.75;;
63046;SDS011;62025;39.238;9.126;2022-10-31T08:29:44;8.57;;;4.25;;
63046;SDS011;62025;39.238;9.126;2022-10-31T08:32:11;15.77;;;4.90;;
63046;SDS011;62025;39.238;9.126;2022-10-31T08:34:56;11.45;;;5.07;;
63046;SDS011;62025;39.238;9.126;2022-10-31T08:37:52;11.15;;;4.70;;
63046;SDS011;62025;39.238;9.126;2022-10-31T08:40:25;10.20;;;5.15;;
63046;SDS011;62025;39.238;9.126;2022-10-31T08:43:00;15.50;;;4.80;;
63046;SDS011;62025;39.238;9.126;2022-10-31T08:45:31;15.00;;;5.28;;
63046;SDS011;62025;39.238;9.126;2022-10-31T08:47:59;14.43;;;5.82;;
63046;SDS011;62025;39.238;9.126;2022-10-31T08:50:27;15.52;;;5.70;;
63046;SDS011;62025;39.238;9.126;2022-10-31T08:53:02;13.15;;;5.97;;
63046;SDS011;62025;39.238;9.126;2022-10-31T08:55:34;16.13;;;6.03;;
63046;SDS011;62025;39.238;9.126;2022-10-31T08:58:05;12.23;;;6.25;;
63046;SDS011;62025;39.238;9.126;2022-10-31T09:00:42;18.73;;;6.60;;
63046;SDS011;62025;39.238;9.126;2022-10-31T09:03:17;14.48;;;6.50;;
63046;SDS011;62025;39.238;9.126;2022-10-31T09:05:49;11.57;;;6.93;;
63046;SDS011;62025;39.238;9.126;2022-10-31T09:08:16;15.93;;;6.03;;
63046;SDS011;62025;39.238;9.126;2022-10-31T09:10:44;9.73;;;5.75;;
63046;SDS011;62025;39.238;9.126;2022-10-31T09:13:14;11.43;;;6.05;;
63046;SDS011;62025;39.238;9.126;2022-10-31T09:16:05;12.93;;;5.82;;
63046;SDS011;62025;39.238;9.126;2022-10-31T09:18:33;13.50;;;5.35;;
63046;SDS011;62025;39.238;9.126;2022-10-31T09:21:00;10.45;;;4.95;;
63046;SDS011;62025;39.238;9.126;2022-10-31T09:23:29;12.43;;;4.97;;
63046;SDS011;62025;39.238;9.126;2022-10-31T09:25:55;11.70;;;5.05;;
63046;SDS011;62025;39.238;9.126;2022-10-31T09:28:47;10.63;;;4.70;;
63046;SDS011;62025;39.238;9.126;2022-10-31T09:31:16;8.52;;;3.80;;
63046;SDS011;62025;39.238;9.126;2022-10-31T09:34:01;6.60;;;2.90;;
63046;SDS011;62025;39.238;9.126;2022-10-31T09:36:38;7.63;;;3.25;;
63046;SDS011;62025;39.238;9.126;2022-10-31T09:39:18;8.60;;;2.90;;
63046;SDS011;62025;39.238;9.126;2022-10-31T09:51:03;4.95;;;3.00;;
63046;SDS011;62025;39.238;9.126;2022-10-31T09:56:41;5.68;;;2.88;;
63046;SDS011;62025;39.238;9.126;2022-10-31T09:59:17;6.35;;;3.30;;
63046;SDS011;62025;39.238;9.126;2022-10-31T10:02:06;6.38;;;3.88;;
63046;SDS011;62025;39.238;9.126;2022-10-31T10:04:57;5.75;;;2.97;;
63046;SDS011;62025;39.238;9.126;2022-10-31T10:10:55;7.38;;;3.05;;
63046;SDS011;62025;39.238;9.126;2022-10-31T10:13:51;7.43;;;2.97;;
63046;SDS011;62025;39.238;9.126;2022-10-31T10:16:52;5.35;;;2.58;;
63046;SDS011;62025;39.238;9.126;2022-10-31T10:22:08;6.95;;;2.90;;
63046;SDS011;62025;39.238;9.126;2022-10-31T10:25:16;6.38;;;3.50;;
63046;SDS011;62025;39.238;9.126;2022-10-31T10:34:00;7.50;;;3.00;;
63046;SDS011;62025;39.238;9.126;2022-10-31T10:36:35;4.10;;;2.33;;
63046;SDS011;62025;39.238;9.126;2022-10-31T10:39:38;7.60;;;3.05;;
63046;SDS011;62025;39.238;9.126;2022-10-31T10:42:13;5.45;;;2.90;;
63046;SDS011;62025;39.238;9.126;2022-10-31T10:44:59;5.57;;;2.67;;
63046;SDS011;62025;39.238;9.126;2022-10-31T10:48:02;8.15;;;3.08;;
63046;SDS011;62025;39.238;9.126;2022-10-31T10:50:39;10.15;;;3.22;;
63046;SDS011;62025;39.238;9.126;2022-10-31T10:56:18;10.38;;;3.42;;
63046;SDS011;62025;39.238;9.126;2022-10-31T10:58:59;6.45;;;2.85;;
63046;SDS011;62025;39.238;9.126;2022-10-31T11:01:25;8.20;;;2.90;;
63046;SDS011;62025;39.238;9.126;2022-10-31T11:03:51;5.28;;;2.80;;
63046;SDS011;62025;39.238;9.126;2022-10-31T11:06:21;7.25;;;2.80;;
63046;SDS011;62025;39.238;9.126;2022-10-31T11:08:51;7.78;;;2.60;;
63046;SDS011;62025;39.238;9.126;2022-10-31T11:11:28;6.82;;;2.67;;
63046;SDS011;62025;39.238;9.126;2022-10-31T11:14:00;6.65;;;2.83;;
63046;SDS011;62025;39.238;9.126;2022-10-31T11:16:39;7.15;;;2.88;;
63046;SDS011;62025;39.238;9.126;2022-10-31T11:21:39;6.65;;;3.00;;
63046;SDS011;62025;39.238;9.126;2022-10-31T11:26:35;4.88;;;2.83;;
63046;SDS011;62025;39.238;9.126;2022-10-31T11:29:04;5.13;;;3.20;;
63046;SDS011;62025;39.238;9.126;2022-10-31T11:31:31;6.20;;;3.40;;
63046;SDS011;62025;39.238;9.126;2022-10-31T11:34:00;5.63;;;3.10;;
63046;SDS011;62025;39.238;9.126;2022-10-31T11:36:30;6.03;;;3.22;;
63046;SDS011;62025;39.238;9.126;2022-10-31T11:39:04;6.28;;;3.03;;
63046;SDS011;62025;39.238;9.126;2022-10-31T11:41:41;9.40;;;3.33;;
63046;SDS011;62025;39.238;9.126;2022-10-31T11:44:12;4.10;;;2.97;;
63046;SDS011;62025;39.238;9.126;2022-10-31T11:46:47;8.10;;;3.00;;
63046;SDS011;62025;39.238;9.126;2022-10-31T11:49:20;9.40;;;2.83;;
63046;SDS011;62025;39.238;9.126;2022-10-31T11:51:55;4.40;;;2.92;;
63046;SDS011;62025;39.238;9.126;2022-10-31T11:54:28;4.40;;;2.50;;
63046;SDS011;62025;39.238;9.126;2022-10-31T11:57:07;5.03;;;2.72;;
63046;SDS011;62025;39.238;9.126;2022-10-31T11:59:53;4.40;;;2.33;;
63046;SDS011;62025;39.238;9.126;2022-10-31T12:02:21;6.70;;;2.65;;
63046;SDS011;62025;39.238;9.126;2022-10-31T12:04:50;4.88;;;2.80;;
63046;SDS011;62025;39.238;9.126;2022-10-31T12:07:33;5.05;;;2.60;;
63046;SDS011;62025;39.238;9.126;2022-10-31T12:09:59;7.80;;;2.80;;
63046;SDS011;62025;39.238;9.126;2022-10-31T12:20:41;7.28;;;2.58;;
63046;SDS011;62025;39.238;9.126;2022-10-31T12:36:00;8.07;;;2.67;;
63046;SDS011;62025;39.238;9.126;2022-10-31T12:53:19;5.95;;;3.35;;
63046;SDS011;62025;39.238;9.126;2022-10-31T12:58:46;3.80;;;2.08;;
63046;SDS011;62025;39.238;9.126;2022-10-31T13:01:27;7.03;;;2.30;;
63046;SDS011;62025;39.238;9.126;2022-10-31T13:06:42;3.92;;;2.10;;
63046;SDS011;62025;39.238;9.126;2022-10-31T13:12:52;5.35;;;1.90;;
63046;SDS011;62025;39.238;9.126;2022-10-31T13:15:26;4.75;;;2.15;;
63046;SDS011;62025;39.238;9.126;2022-10-31T13:18:04;5.20;;;2.10;;
63046;SDS011;62025;39.238;9.126;2022-10-31T13:20:41;6.38;;;2.30;;
63046;SDS011;62025;39.238;9.126;2022-10-31T13:26:05;3.47;;;2.05;;
63046;SDS011;62025;39.238;9.126;2022-10-31T13:31:49;5.43;;;2.35;;
63046;SDS011;62025;39.238;9.126;2022-10-31T13:34:19;8.88;;;2.40;;
63046;SDS011;62025;39.238;9.126;2022-10-31T13:39:50;5.63;;;2.22;;
63046;SDS011;62025;39.238;9.126;2022-10-31T13:47:56;3.10;;;2.40;;
63046;SDS011;62025;39.238;9.126;2022-10-31T13:50:27;4.75;;;2.63;;
63046;SDS011;62025;39.238;9.126;2022-10-31T13:53:10;2.72;;;2.28;;
63046;SDS011;62025;39.238;9.126;2022-10-31T13:55:41;3.58;;;1.95;;
63046;SDS011;62025;39.238;9.126;2022-10-31T14:04:06;3.95;;;1.90;;
63046;SDS011;62025;39.238;9.126;2022-10-31T14:06:53;3.08;;;2.10;;
63046;SDS011;62025;39.238;9.126;2022-10-31T14:09:39;4.45;;;2.20;;
63046;SDS011;62025;39.238;9.126;2022-10-31T14:15:23;3.97;;;1.95;;
63046;SDS011;62025;39.238;9.126;2022-10-31T14:17:59;5.78;;;2.25;;
63046;SDS011;62025;39.238;9.126;2022-10-31T14:25:38;8.02;;;2.13;;
63046;SDS011;62025;39.238;9.126;2022-10-31T14:28:21;7.75;;;2.05;;
63046;SDS011;62025;39.238;9.126;2022-10-31T14:30:59;6.03;;;2.70;;
63046;SDS011;62025;39.238;9.126;2022-10-31T14:33:29;3.25;;;2.30;;
63046;SDS011;62025;39.238;9.126;2022-10-31T14:36:00;12.27;;;2.58;;
63046;SDS011;62025;39.238;9.126;2022-10-31T14:42:09;3.78;;;2.20;;
63046;SDS011;62025;39.238;9.126;2022-10-31T14:44:53;4.32;;;2.00;;
63046;SDS011;62025;39.238;9.126;2022-10-31T14:53:20;4.22;;;1.92;;
63046;SDS011;62025;39.238;9.126;2022-10-31T14:55:55;8.70;;;3.58;;
63046;SDS011;62025;39.238;9.126;2022-10-31T14:58:31;3.72;;;2.40;;
63046;SDS011;62025;39.238;9.126;2022-10-31T15:01:16;4.43;;;2.22;;
63046;SDS011;62025;39.238;9.126;2022-10-31T15:03:51;5.63;;;2.20;;
63046;SDS011;62025;39.238;9.126;2022-10-31T15:06:20;4.57;;;2.53;;
63046;SDS011;62025;39.238;9.126;2022-10-31T15:08:52;7.97;;;2.30;;
63046;SDS011;62025;39.238;9.126;2022-10-31T15:11:23;3.85;;;2.25;;
63046;SDS011;62025;39.238;9.126;2022-10-31T15:13:52;4.28;;;2.00;;
63046;SDS011;62025;39.238;9.126;2022-10-31T15:16:24;4.97;;;2.10;;
63046;SDS011;62025;39.238;9.126;2022-10-31T15:19:03;5.32;;;2.50;;
63046;SDS011;62025;39.238;9.126;2022-10-31T15:21:35;6.07;;;2.20;;
63046;SDS011;62025;39.238;9.126;2022-10-31T15:24:10;4.38;;;2.28;;
63046;SDS011;62025;39.238;9.126;2022-10-31T15:26:43;4.93;;;2.60;;
63046;SDS011;62025;39.238;9.126;2022-10-31T15:29:13;6.78;;;2.50;;
63046;SDS011;62025;39.238;9.126;2022-10-31T15:34:41;6.22;;;2.22;;
63046;SDS011;62025;39.238;9.126;2022-10-31T15:37:09;5.30;;;2.50;;
63046;SDS011;62025;39.238;9.126;2022-10-31T15:39:42;8.65;;;2.50;;
63046;SDS011;62025;39.238;9.126;2022-10-31T15:47:36;6.50;;;2.42;;
63046;SDS011;62025;39.238;9.126;2022-10-31T15:50:03;7.22;;;3.35;;
63046;SDS011;62025;39.238;9.126;2022-10-31T15:52:45;6.07;;;2.40;;
63046;SDS011;62025;39.238;9.126;2022-10-31T15:55:18;7.45;;;2.72;;
63046;SDS011;62025;39.238;9.126;2022-10-31T15:57:48;5.55;;;2.55;;
63046;SDS011;62025;39.238;9.126;2022-10-31T16:00:29;5.20;;;2.65;;
63046;SDS011;62025;39.238;9.126;2022-10-31T16:03:44;5.60;;;2.55;;
63046;SDS011;62025;39.238;9.126;2022-10-31T16:05:46;5.57;;;2.90;;
63046;SDS011;62025;39.238;9.126;2022-10-31T16:13:33;10.75;;;2.70;;
63046;SDS011;62025;39.238;9.126;2022-10-31T16:16:03;7.97;;;3.03;;
63046;SDS011;62025;39.238;9.126;2022-10-31T16:18:39;6.57;;;2.53;;
63046;SDS011;62025;39.238;9.126;2022-10-31T16:21:06;7.03;;;3.00;;
63046;SDS011;62025;39.238;9.126;2022-10-31T16:23:34;6.85;;;2.90;;
63046;SDS011;62025;39.238;9.126;2022-10-31T16:26:05;9.32;;;2.90;;
63046;SDS011;62025;39.238;9.126;2022-10-31T16:28:33;6.60;;;2.95;;
63046;SDS011;62025;39.238;9.126;2022-10-31T16:30:59;6.30;;;2.95;;
63046;SDS011;62025;39.238;9.126;2022-10-31T16:33:32;7.25;;;2.75;;
63046;SDS011;62025;39.238;9.126;2022-10-31T16:36:30;5.03;;;2.75;;
63046;SDS011;62025;39.238;9.126;2022-10-31T16:38:56;4.95;;;2.97;;
63046;SDS011;62025;39.238;9.126;2022-10-31T16:41:23;8.25;;;2.90;;
63046;SDS011;62025;39.238;9.126;2022-10-31T16:43:50;5.35;;;2.92;;
63046;SDS011;62025;39.238;9.126;2022-10-31T16:46:27;4.90;;;2.70;;
63046;SDS011;62025;39.238;9.126;2022-10-31T16:48:53;9.98;;;3.45;;
63046;SDS011;62025;39.238;9.126;2022-10-31T16:51:20;10.23;;;3.40;;
63046;SDS011;62025;39.238;9.126;2022-10-31T16:53:46;4.35;;;3.08;;
63046;SDS011;62025;39.238;9.126;2022-10-31T16:56:16;8.80;;;3.45;;
63046;SDS011;62025;39.238;9.126;2022-10-31T16:58:53;5.90;;;3.25;;
63046;SDS011;62025;39.238;9.126;2022-10-31T17:01:19;10.25;;;3.28;;
63046;SDS011;62025;39.238;9.126;2022-10-31T17:03:45;8.50;;;3.30;;
63046;SDS011;62025;39.238;9.126;2022-10-31T17:06:12;6.68;;;3.15;;
63046;SDS011;62025;39.238;9.126;2022-10-31T17:08:38;5.63;;;2.83;;
63046;SDS011;62025;39.238;9.126;2022-10-31T17:11:04;7.25;;;3.88;;
63046;SDS011;62025;39.238;9.126;2022-10-31T17:13:31;7.15;;;3.70;;
63046;SDS011;62025;39.238;9.126;2022-10-31T17:15:59;6.13;;;3.05;;
63046;SDS011;62025;39.238;9.126;2022-10-31T17:18:27;4.57;;;2.78;;
63046;SDS011;62025;39.238;9.126;2022-10-31T17:20:57;8.77;;;3.50;;
63046;SDS011;62025;39.238;9.126;2022-10-31T17:23:26;11.07;;;4.15;;
63046;SDS011;62025;39.238;9.126;2022-10-31T17:25:53;7.15;;;3.15;;
63046;SDS011;62025;39.238;9.126;2022-10-31T17:28:20;8.13;;;3.50;;
63046;SDS011;62025;39.238;9.126;2022-10-31T17:30:46;8.55;;;3.28;;
63046;SDS011;62025;39.238;9.126;2022-10-31T17:33:12;5.32;;;3.10;;
63046;SDS011;62025;39.238;9.126;2022-10-31T17:35:41;4.63;;;3.20;;
63046;SDS011;62025;39.238;9.126;2022-10-31T17:38:09;8.73;;;3.60;;
63046;SDS011;62025;39.238;9.126;2022-10-31T17:40:36;8.52;;;4.10;;
63046;SDS011;62025;39.238;9.126;2022-10-31T17:43:04;9.13;;;4.00;;
63046;SDS011;62025;39.238;9.126;2022-10-31T17:45:30;7.45;;;3.45;;
63046;SDS011;62025;39.238;9.126;2022-10-31T17:47:56;10.52;;;4.38;;
63046;SDS011;62025;39.238;9.126;2022-10-31T17:50:23;9.63;;;4.10;;
63046;SDS011;62025;39.238;9.126;2022-10-31T17:52:51;11.52;;;4.03;;
63046;SDS011;62025;39.238;9.126;2022-10-31T17:55:17;7.00;;;3.85;;
63046;SDS011;62025;39.238;9.126;2022-10-31T17:57:44;10.48;;;3.92;;